Time;durP1;ratioP1;P1;durP2;ratioP2;P2;SDS_P1;SDS_P2;PMS_P1;PMS_P2;Temp;Humidity;BMP_temperature;BMP_pressure;BME280_temperature;BME280_humidity;BME280_pressure;Samples;Min_cycle;Max_cycle;Signal;HPM_P1;HPM_P2
2024/03/02 00:00:11;;;;;;;3.00;0.80;;;8.50;99.90;;;;;;4991665;28;20555;-54
2024/03/02 00:02:44;;;;;;;2.33;0.60;;;8.50;99.90;;;;;;4992948;28;20077;-52
2024/03/02 00:05:16;;;;;;;1.47;0.50;;;8.50;99.90;;;;;;4990225;28;20427;-49
2024/03/02 00:07:42;;;;;;;2.87;0.93;;;8.50;99.90;;;;;;4982265;28;20138;-53
2024/03/02 00:10:12;;;;;;;2.10;0.60;;;8.50;99.90;;;;;;4984019;28;20093;-52
2024/03/02 00:12:39;;;;;;;1.97;0.87;;;8.50;99.90;;;;;;4990984;28;20141;-51
2024/03/02 00:15:43;;;;;;;2.53;0.83;;;8.50;99.90;;;;;;4990999;28;20558;-52
2024/03/02 00:18:12;;;;;;;2.03;1.00;;;8.50;99.90;;;;;;4949635;29;20035;-51
2024/03/02 00:20:38;;;;;;;2.60;1.08;;;8.50;99.90;;;;;;4983898;28;20129;-51
2024/03/02 00:23:06;;;;;;;2.57;0.93;;;8.50;99.90;;;;;;4991160;28;20038;-53
2024/03/02 00:25:39;;;;;;;1.97;0.70;;;8.50;99.90;;;;;;4983556;28;20533;-50
2024/03/02 00:28:07;;;;;;;1.80;0.93;;;8.50;99.90;;;;;;4983521;28;20081;-54
2024/03/02 00:30:50;;;;;;;0.93;0.63;;;8.60;99.90;;;;;;4973889;28;20042;-51
2024/03/02 00:33:16;;;;;;;3.80;0.77;;;8.70;99.90;;;;;;4984900;28;20069;-52
2024/03/02 00:35:44;;;;;;;1.23;0.73;;;8.70;99.90;;;;;;4990633;28;20138;-52
2024/03/02 00:38:10;;;;;;;2.43;0.90;;;8.70;99.90;;;;;;4990544;28;20061;-53
2024/03/02 00:40:36;;;;;;;1.60;0.80;;;8.80;99.90;;;;;;4974744;28;20074;-52
2024/03/02 00:43:03;;;;;;;1.60;0.37;;;8.80;99.90;;;;;;4990553;28;20189;-51
2024/03/02 00:45:29;;;;;;;3.70;1.07;;;8.80;99.90;;;;;;4993668;28;20058;-52
2024/03/02 00:47:55;;;;;;;1.27;0.57;;;8.80;99.90;;;;;;4997246;28;20140;-54
2024/03/02 00:50:21;;;;;;;1.77;0.80;;;8.90;99.90;;;;;;4997064;28;20494;-51
2024/03/02 00:52:50;;;;;;;4.07;0.80;;;8.90;99.90;;;;;;4996983;28;20042;-51
2024/03/02 00:55:16;;;;;;;2.97;0.90;;;8.90;99.90;;;;;;4997287;28;20034;-53
2024/03/02 00:57:41;;;;;;;1.70;0.60;;;9.00;99.90;;;;;;4997348;28;20089;-53
2024/03/02 01:00:10;;;;;;;1.83;0.77;;;9.00;99.90;;;;;;4993226;28;20395;-52
2024/03/02 01:02:35;;;;;;;1.13;0.60;;;9.00;99.90;;;;;;4993360;28;20038;-48
2024/03/02 01:05:01;;;;;;;1.63;0.60;;;9.00;99.90;;;;;;4993989;28;20113;-49
2024/03/02 01:07:27;;;;;;;1.53;0.90;;;9.00;99.90;;;;;;4992064;28;20093;-51
2024/03/02 01:09:52;;;;;;;1.67;0.70;;;9.00;99.90;;;;;;4980787;28;20031;-53
2024/03/02 01:12:18;;;;;;;2.80;0.90;;;9.00;99.90;;;;;;4997170;28;20398;-53
2024/03/02 01:14:43;;;;;;;1.80;0.77;;;9.10;99.90;;;;;;4996649;28;20034;-52
2024/03/02 01:17:09;;;;;;;1.67;0.73;;;9.00;99.90;;;;;;4981555;28;20161;-53
2024/03/02 01:19:35;;;;;;;1.23;0.60;;;9.00;99.90;;;;;;4989893;28;20716;-51
2024/03/02 01:22:00;;;;;;;2.17;0.87;;;9.10;99.90;;;;;;4988034;28;20117;-53
2024/03/02 01:24:26;;;;;;;2.23;0.90;;;9.10;99.90;;;;;;4997169;28;20027;-52
2024/03/02 01:26:52;;;;;;;2.40;1.00;;;9.10;99.90;;;;;;4980714;28;20038;-53
2024/03/02 01:29:18;;;;;;;1.77;0.87;;;9.00;99.90;;;;;;4988940;28;20108;-49
2024/03/02 01:31:43;;;;;;;1.93;0.80;;;9.00;99.90;;;;;;4988942;28;20567;-53
2024/03/02 01:34:09;;;;;;;2.63;0.90;;;9.00;99.90;;;;;;4996667;28;20038;-51
2024/03/02 01:36:34;;;;;;;1.53;0.70;;;9.00;99.90;;;;;;4996522;28;20038;-53
2024/03/02 01:39:01;;;;;;;1.03;0.60;;;8.90;99.90;;;;;;4996750;28;20035;-53
2024/03/02 01:41:26;;;;;;;2.37;0.87;;;8.90;99.90;;;;;;4996567;28;20594;-52
2024/03/02 01:43:52;;;;;;;1.73;0.80;;;8.90;99.90;;;;;;4996774;28;20046;-53
2024/03/02 01:46:17;;;;;;;1.20;0.70;;;8.80;99.90;;;;;;4996716;28;20407;-52
2024/03/02 01:48:43;;;;;;;2.93;0.97;;;8.80;99.90;;;;;;4995513;28;20040;-52
2024/03/02 01:51:10;;;;;;;3.67;1.00;;;8.80;99.90;;;;;;4996286;28;20042;-48
2024/03/02 01:53:36;;;;;;;2.97;0.70;;;8.80;99.90;;;;;;4996936;28;20030;-51
2024/03/02 01:56:02;;;;;;;2.30;0.80;;;8.80;99.90;;;;;;4996127;28;20034;-52
2024/03/02 01:58:27;;;;;;;0.90;0.70;;;8.80;99.90;;;;;;4993586;28;20046;-52
2024/03/02 02:00:53;;;;;;;1.83;0.70;;;8.80;99.90;;;;;;4985180;28;20154;-51
2024/03/02 02:03:19;;;;;;;1.97;0.80;;;8.80;99.90;;;;;;4993411;28;20168;-50
2024/03/02 02:05:46;;;;;;;1.20;0.70;;;8.90;99.90;;;;;;4993100;28;20041;-52
2024/03/02 02:08:13;;;;;;;1.83;0.60;;;8.90;99.90;;;;;;4989725;28;20034;-53
2024/03/02 02:10:38;;;;;;;1.67;0.80;;;8.90;99.90;;;;;;4989060;28;20365;-51
2024/03/02 02:13:04;;;;;;;1.83;0.50;;;8.90;99.90;;;;;;4985241;28;20041;-49
2024/03/02 02:15:30;;;;;;;1.43;0.80;;;9.00;99.90;;;;;;4993085;28;20026;-49
2024/03/02 02:17:57;;;;;;;1.17;0.80;;;9.00;99.90;;;;;;4993037;28;20026;-53
2024/03/02 02:20:24;;;;;;;1.30;0.53;;;9.00;99.90;;;;;;4987944;28;20129;-50
2024/03/02 02:23:03;;;;;;;2.23;0.77;;;9.10;99.90;;;;;;4983931;28;20031;-49
2024/03/02 02:25:29;;;;;;;1.50;0.80;;;9.00;99.90;;;;;;4993087;28;20542;-49
2024/03/02 02:27:56;;;;;;;0.83;0.43;;;9.10;99.90;;;;;;4985041;28;20387;-51
2024/03/02 02:30:27;;;;;;;2.10;0.70;;;9.10;99.90;;;;;;4992889;28;20030;-50
2024/03/02 02:32:53;;;;;;;3.07;0.97;;;9.10;99.90;;;;;;4992514;28;20080;-52
2024/03/02 02:35:18;;;;;;;2.23;0.63;;;9.20;99.90;;;;;;4992922;28;20026;-49
2024/03/02 02:37:46;;;;;;;1.20;0.60;;;9.20;99.90;;;;;;4991577;28;20375;-50
2024/03/02 02:40:12;;;;;;;0.93;0.50;;;9.20;99.90;;;;;;4991215;28;20026;-52
2024/03/02 02:42:38;;;;;;;2.67;0.80;;;9.20;99.90;;;;;;4992962;28;20084;-49
2024/03/02 02:45:05;;;;;;;1.23;0.77;;;9.20;99.90;;;;;;4992780;28;20023;-51
2024/03/02 02:47:31;;;;;;;2.47;0.80;;;9.20;99.90;;;;;;4992720;28;20085;-52
2024/03/02 02:49:56;;;;;;;1.83;0.80;;;9.30;99.90;;;;;;4992570;28;20065;-53
2024/03/02 02:52:22;;;;;;;1.50;0.73;;;9.30;99.90;;;;;;4984524;28;20018;-52
2024/03/02 02:54:48;;;;;;;1.33;0.70;;;9.30;99.90;;;;;;4984668;28;20514;-49
2024/03/02 02:57:13;;;;;;;1.87;0.70;;;9.30;99.90;;;;;;4992918;28;20116;-50
2024/03/02 02:59:39;;;;;;;1.87;0.90;;;9.30;99.90;;;;;;4991229;28;20037;-50
2024/03/02 03:02:05;;;;;;;1.40;0.60;;;9.30;99.90;;;;;;4992492;28;20421;-48
2024/03/02 03:04:30;;;;;;;2.03;0.87;;;9.30;99.90;;;;;;4992408;28;20117;-54
2024/03/02 03:06:56;;;;;;;1.67;0.73;;;9.30;99.90;;;;;;4984138;28;20035;-52
2024/03/02 03:09:21;;;;;;;1.47;0.53;;;9.30;99.90;;;;;;4991775;28;20027;-50
2024/03/02 03:11:47;;;;;;;2.03;0.63;;;9.30;99.90;;;;;;4992080;28;20076;-48
2024/03/02 03:14:12;;;;;;;2.37;0.70;;;9.30;99.90;;;;;;4992207;28;20076;-53
2024/03/02 03:16:38;;;;;;;1.90;0.80;;;9.30;99.90;;;;;;4991923;28;20092;-49
2024/03/02 03:19:03;;;;;;;1.33;0.70;;;9.30;99.90;;;;;;4992132;28;20104;-53
2024/03/02 03:21:29;;;;;;;1.90;0.67;;;9.30;99.90;;;;;;4990542;28;20112;-50
2024/03/02 03:23:55;;;;;;;0.73;0.53;;;9.30;99.90;;;;;;4992083;28;20150;-50
2024/03/02 03:26:20;;;;;;;1.93;0.50;;;9.30;99.90;;;;;;4992378;28;20360;-51
2024/03/02 03:28:46;;;;;;;1.30;0.63;;;9.30;99.90;;;;;;4992052;28;20026;-50
2024/03/02 03:31:12;;;;;;;1.33;0.70;;;9.30;99.90;;;;;;4991324;28;20534;-53
2024/03/02 03:33:37;;;;;;;2.23;0.80;;;9.20;99.90;;;;;;4992144;28;20030;-53
2024/03/02 03:36:03;;;;;;;1.43;0.77;;;9.20;99.90;;;;;;4975202;28;20030;-53
2024/03/02 03:38:30;;;;;;;1.63;0.80;;;9.20;99.90;;;;;;4978188;28;20045;-50
2024/03/02 03:40:55;;;;;;;1.67;1.00;;;9.10;99.90;;;;;;4975661;28;20089;-49
2024/03/02 03:43:21;;;;;;;2.93;0.93;;;9.10;99.90;;;;;;4980172;28;20019;-49
2024/03/02 03:45:46;;;;;;;1.90;0.80;;;9.10;99.90;;;;;;4987723;28;20100;-53
2024/03/02 03:48:12;;;;;;;1.40;0.80;;;9.10;99.90;;;;;;4989311;28;20042;-54
2024/03/02 03:50:38;;;;;;;2.23;0.90;;;9.10;99.90;;;;;;4978446;28;20153;-52
2024/03/02 03:53:03;;;;;;;2.63;0.80;;;9.00;99.90;;;;;;4983869;28;20054;-51
2024/03/02 03:55:29;;;;;;;2.73;0.70;;;9.00;99.90;;;;;;4990355;28;20455;-49
2024/03/02 03:57:55;;;;;;;1.43;0.73;;;9.00;99.90;;;;;;4991599;28;20028;-50
2024/03/02 04:00:20;;;;;;;2.73;0.90;;;8.90;99.90;;;;;;4991484;28;20455;-50
2024/03/02 04:02:46;;;;;;;1.67;0.80;;;8.90;99.90;;;;;;4989478;28;20034;-48
2024/03/02 04:05:11;;;;;;;2.17;0.90;;;8.80;99.90;;;;;;4991448;28;20065;-50
2024/03/02 04:07:40;;;;;;;1.70;0.83;;;8.70;99.90;;;;;;4983800;28;20159;-49
2024/03/02 04:10:12;;;;;;;2.40;0.90;;;8.60;99.90;;;;;;4991326;28;20049;-49
2024/03/02 04:12:38;;;;;;;1.80;1.00;;;8.50;99.90;;;;;;4991490;28;20030;-48
2024/03/02 04:15:06;;;;;;;3.50;1.10;;;8.40;99.90;;;;;;4991240;28;20121;-50
2024/03/02 04:17:33;;;;;;;1.73;0.80;;;8.50;99.90;;;;;;4991711;28;20365;-49
2024/03/02 04:19:59;;;;;;;1.87;0.90;;;8.50;99.90;;;;;;4990310;28;20116;-50
2024/03/02 04:22:25;;;;;;;3.17;0.70;;;8.40;99.90;;;;;;4991329;28;20061;-49
2024/03/02 04:24:51;;;;;;;1.83;0.87;;;8.30;99.90;;;;;;4983525;28;20479;-48
2024/03/02 04:27:17;;;;;;;2.50;0.83;;;8.30;99.90;;;;;;4987006;28;20114;-49
2024/03/02 04:29:42;;;;;;;3.03;1.10;;;8.30;99.90;;;;;;4979858;28;20480;-50
2024/03/02 04:32:08;;;;;;;4.07;1.10;;;8.30;99.90;;;;;;4989560;28;20089;-49
2024/03/02 04:34:34;;;;;;;2.10;1.00;;;8.20;99.90;;;;;;4986330;28;20042;-49
2024/03/02 04:36:59;;;;;;;2.07;0.90;;;8.20;99.90;;;;;;4987996;28;20034;-48
2024/03/02 04:39:25;;;;;;;1.80;0.80;;;8.10;99.90;;;;;;4974876;28;20464;-50
2024/03/02 04:41:50;;;;;;;2.23;0.70;;;8.10;99.90;;;;;;4989579;28;20519;-49
2024/03/02 04:44:16;;;;;;;2.47;0.77;;;8.20;99.90;;;;;;4971537;28;20046;-48
2024/03/02 04:46:41;;;;;;;1.13;0.60;;;8.20;99.90;;;;;;4990623;28;20022;-48
2024/03/02 04:49:07;;;;;;;3.00;1.00;;;8.10;99.90;;;;;;4989818;28;20034;-49
2024/03/02 04:51:34;;;;;;;1.53;0.77;;;8.00;99.90;;;;;;4985675;28;20047;-48
2024/03/02 04:53:59;;;;;;;2.53;1.13;;;8.00;99.90;;;;;;4979744;28;20106;-50
2024/03/02 04:58:57;;;;;;;2.40;0.60;;;8.10;99.90;;;;;;4991191;28;20034;-48
2024/03/02 05:01:22;;;;;;;2.53;1.10;;;8.10;99.90;;;;;;4991145;28;20105;-48
2024/03/02 05:03:48;;;;;;;1.63;0.80;;;8.00;99.90;;;;;;4991250;28;20468;-49
2024/03/02 05:06:14;;;;;;;2.03;0.70;;;8.00;99.90;;;;;;4990794;28;20397;-50
2024/03/02 05:08:40;;;;;;;2.93;0.90;;;7.90;99.90;;;;;;4991063;28;20173;-48
2024/03/02 05:13:49;;;;;;;0.90;0.63;;;7.80;99.90;;;;;;4984452;28;20400;-48
2024/03/02 05:16:15;;;;;;;1.17;0.57;;;7.80;99.90;;;;;;4989767;28;20032;-48
2024/03/02 05:18:41;;;;;;;2.73;0.90;;;7.70;99.90;;;;;;4991120;28;20030;-48
2024/03/02 05:21:06;;;;;;;3.63;0.90;;;7.60;99.90;;;;;;4993380;28;20117;-50
2024/03/02 05:23:32;;;;;;;1.83;0.93;;;7.60;99.90;;;;;;4990515;28;20062;-49
2024/03/02 05:25:57;;;;;;;1.50;0.77;;;7.70;99.90;;;;;;4982187;28;20023;-53
2024/03/02 05:28:23;;;;;;;2.00;0.80;;;7.70;99.90;;;;;;4990935;28;20586;-48
2024/03/02 05:30:49;;;;;;;1.77;0.80;;;7.60;99.90;;;;;;4991340;28;20030;-49
2024/03/02 05:33:15;;;;;;;1.70;0.70;;;7.60;99.90;;;;;;4995307;28;20061;-50
2024/03/02 05:35:40;;;;;;;2.10;0.63;;;7.60;99.90;;;;;;4990741;28;20022;-49
2024/03/02 05:38:06;;;;;;;1.13;0.70;;;7.50;99.90;;;;;;4985835;28;20041;-49
2024/03/02 05:40:31;;;;;;;2.50;0.70;;;7.60;99.90;;;;;;4996681;28;20419;-48
2024/03/02 05:42:57;;;;;;;1.97;1.00;;;7.50;99.90;;;;;;4988928;28;20150;-52
2024/03/02 05:45:23;;;;;;;2.53;0.90;;;7.40;99.90;;;;;;4976346;28;20037;-54
2024/03/02 05:47:48;;;;;;;2.37;0.90;;;7.50;99.90;;;;;;4977485;28;20093;-55
2024/03/02 05:50:14;;;;;;;2.33;1.00;;;7.40;99.90;;;;;;4976033;28;20037;-54
2024/03/02 05:52:39;;;;;;;3.00;0.63;;;7.30;99.90;;;;;;4975828;28;20404;-51
2024/03/02 05:55:05;;;;;;;2.77;0.70;;;7.20;99.90;;;;;;4975746;28;20062;-52
2024/03/02 05:57:59;;;;;;;8.53;3.30;;;7.20;99.90;;;;;;4975693;28;20026;-51
2024/03/02 06:00:19;;;;;;;3.03;1.20;;;7.30;99.90;;;;;;4976153;28;20035;-50
2024/03/02 06:02:45;;;;;;;2.17;0.70;;;7.30;99.90;;;;;;4975568;28;20491;-54
2024/03/02 06:05:11;;;;;;;3.47;0.83;;;7.40;99.90;;;;;;4975453;28;20069;-54
2024/03/02 06:07:36;;;;;;;1.80;0.90;;;7.40;99.90;;;;;;4975645;28;20027;-51
2024/03/02 06:10:02;;;;;;;2.77;0.83;;;7.40;99.90;;;;;;4975522;28;20031;-52
2024/03/02 06:12:30;;;;;;;2.43;0.90;;;7.50;99.90;;;;;;4975385;28;20046;-55
2024/03/02 06:14:56;;;;;;;4.17;1.30;;;7.60;99.90;;;;;;4975502;28;20039;-51
2024/03/02 06:17:21;;;;;;;2.77;0.93;;;7.50;99.90;;;;;;4975474;28;20097;-52
2024/03/02 06:19:47;;;;;;;2.27;0.80;;;7.50;99.90;;;;;;4975339;28;20038;-52
2024/03/02 06:22:13;;;;;;;2.97;0.90;;;7.50;99.90;;;;;;4990262;28;20030;-53
2024/03/02 06:24:38;;;;;;;2.00;1.00;;;7.40;99.90;;;;;;4975348;28;20094;-54
2024/03/02 06:27:05;;;;;;;2.33;1.10;;;7.50;99.90;;;;;;4974115;28;20039;-53
2024/03/02 06:29:33;;;;;;;1.10;0.70;;;7.40;99.90;;;;;;4975273;28;20042;-55
2024/03/02 06:31:59;;;;;;;1.83;0.70;;;7.40;99.90;;;;;;4975206;28;20045;-53
2024/03/02 06:34:25;;;;;;;2.37;0.93;;;7.40;99.90;;;;;;4975022;28;20030;-51
2024/03/02 06:36:50;;;;;;;1.97;0.73;;;7.40;99.90;;;;;;4975148;28;20464;-51
2024/03/02 06:39:16;;;;;;;2.70;0.80;;;7.40;99.90;;;;;;4975070;28;20030;-50
2024/03/02 06:41:47;;;;;;;2.10;0.73;;;7.40;99.90;;;;;;4989911;28;20038;-55
2024/03/02 06:44:12;;;;;;;4.77;0.80;;;7.40;99.90;;;;;;4974136;28;20113;-54
2024/03/02 06:46:38;;;;;;;2.23;0.83;;;7.40;99.90;;;;;;4974933;28;20089;-54
2024/03/02 06:49:04;;;;;;;3.13;0.77;;;7.30;99.90;;;;;;4974913;28;20035;-54
2024/03/02 06:51:30;;;;;;;2.07;0.93;;;7.20;99.90;;;;;;4974665;28;20097;-55
2024/03/02 06:53:55;;;;;;;1.80;0.80;;;7.30;99.90;;;;;;4974904;28;20073;-53
2024/03/02 06:56:21;;;;;;;1.73;0.87;;;7.40;99.90;;;;;;4974714;28;20031;-51
2024/03/02 06:58:47;;;;;;;1.83;0.97;;;7.40;99.90;;;;;;4974737;28;20037;-51
2024/03/02 07:01:12;;;;;;;1.83;1.13;;;7.50;99.90;;;;;;4974808;28;20023;-50
2024/03/02 07:03:41;;;;;;;4.13;0.97;;;7.50;99.90;;;;;;4974569;28;20099;-52
2024/03/02 07:06:07;;;;;;;2.80;1.00;;;7.70;99.90;;;;;;4974550;28;20027;-53
2024/03/02 07:08:33;;;;;;;2.47;1.03;;;7.80;99.90;;;;;;4974515;28;20035;-54
2024/03/02 07:10:59;;;;;;;1.90;0.90;;;7.90;99.90;;;;;;4974287;28;20499;-53
2024/03/02 07:13:24;;;;;;;2.37;1.10;;;8.00;99.90;;;;;;4974471;28;20035;-56
2024/03/02 07:18:39;;;;;;;1.90;1.10;;;8.20;99.90;;;;;;4974350;28;20500;-51
2024/03/02 07:21:05;;;;;;;3.33;1.40;;;8.20;99.90;;;;;;4974350;28;20038;-54
2024/03/02 07:23:31;;;;;;;2.20;0.63;;;8.30;99.90;;;;;;4974322;28;20366;-55
2024/03/02 07:25:57;;;;;;;3.23;1.00;;;8.40;99.90;;;;;;4974310;28;20023;-55
2024/03/02 07:28:23;;;;;;;5.80;1.17;;;8.40;99.90;;;;;;4974157;28;20547;-54
2024/03/02 07:30:59;;;;;;;3.97;1.10;;;8.40;99.90;;;;;;4972562;28;20452;-56
2024/03/02 07:33:25;;;;;;;1.60;0.90;;;8.40;99.90;;;;;;4974121;28;20484;-54
2024/03/02 07:35:51;;;;;;;3.80;0.97;;;8.50;99.90;;;;;;4973946;28;20033;-54
2024/03/02 07:38:16;;;;;;;2.17;0.93;;;8.50;99.90;;;;;;4973879;28;20042;-55
2024/03/02 07:40:42;;;;;;;1.80;1.10;;;8.80;99.90;;;;;;4973758;28;20041;-54
2024/03/02 07:43:08;;;;;;;10.00;3.37;;;9.30;99.90;;;;;;4973890;28;20038;-54
2024/03/02 07:45:36;;;;;;;2.33;1.20;;;9.90;99.90;;;;;;4973701;28;20473;-55
2024/03/02 07:48:03;;;;;;;1.40;0.90;;;10.50;99.90;;;;;;4973821;28;20039;-53
2024/03/02 07:50:30;;;;;;;2.27;1.07;;;11.00;99.90;;;;;;4988484;28;20039;-55
2024/03/02 07:52:56;;;;;;;2.03;1.03;;;11.30;99.90;;;;;;4973472;28;20034;-55
2024/03/02 07:55:23;;;;;;;3.00;1.03;;;11.50;99.90;;;;;;4973399;28;20057;-56
2024/03/02 07:57:49;;;;;;;2.80;1.20;;;11.70;99.90;;;;;;4973520;28;20118;-56
2024/03/02 08:00:15;;;;;;;4.53;1.20;;;11.90;99.90;;;;;;4974029;28;20433;-56
2024/03/02 08:02:42;;;;;;;2.60;0.80;;;12.00;99.90;;;;;;4973508;28;20057;-52
2024/03/02 08:05:08;;;;;;;1.87;0.80;;;12.10;99.90;;;;;;4973542;28;20031;-53
2024/03/02 08:07:34;;;;;;;1.90;0.90;;;11.90;99.90;;;;;;4973423;28;20027;-54
2024/03/02 08:10:00;;;;;;;2.40;1.03;;;11.60;99.90;;;;;;4973384;28;20053;-55
2024/03/02 08:12:25;;;;;;;3.70;1.17;;;11.30;99.90;;;;;;4973226;28;20031;-54
2024/03/02 08:14:51;;;;;;;2.17;1.10;;;11.20;99.90;;;;;;4973251;28;20039;-53
2024/03/02 08:17:17;;;;;;;1.80;0.87;;;11.10;99.90;;;;;;4973303;28;20043;-55
2024/03/02 08:19:43;;;;;;;2.83;0.90;;;11.10;99.90;;;;;;4973342;28;20038;-55
2024/03/02 08:22:09;;;;;;;3.03;0.97;;;11.10;99.90;;;;;;4973131;28;20502;-53
2024/03/02 08:24:35;;;;;;;2.40;1.10;;;11.00;99.90;;;;;;4973071;28;20027;-55
2024/03/02 08:27:01;;;;;;;2.23;0.97;;;11.30;99.90;;;;;;4973232;28;20026;-55
2024/03/02 08:29:27;;;;;;;1.67;1.17;;;11.50;99.90;;;;;;4973169;28;20023;-55
2024/03/02 08:31:53;;;;;;;3.43;1.60;;;11.80;99.90;;;;;;4973027;28;20391;-53
2024/03/02 08:34:19;;;;;;;3.30;1.20;;;11.80;99.90;;;;;;4973224;28;20510;-53
2024/03/02 08:36:45;;;;;;;3.07;1.23;;;11.80;99.90;;;;;;4973074;28;20058;-53
2024/03/02 08:39:15;;;;;;;2.25;1.10;;;12.00;99.90;;;;;;4971730;28;20065;-52
2024/03/02 08:41:47;;;;;;;1.90;1.08;;;12.50;99.90;;;;;;4972839;28;20031;-55
2024/03/02 08:44:13;;;;;;;2.65;1.17;;;12.60;99.90;;;;;;4972760;28;20443;-54
2024/03/02 08:46:40;;;;;;;5.78;1.20;;;12.70;99.90;;;;;;4972856;28;20130;-54
2024/03/02 08:49:06;;;;;;;11.27;1.42;;;12.70;99.90;;;;;;4973432;28;20038;-55
2024/03/02 08:51:32;;;;;;;7.55;3.08;;;12.50;99.90;;;;;;4972718;28;20030;-55
2024/03/02 08:53:58;;;;;;;5.68;1.70;;;12.40;99.90;;;;;;4972834;28;20491;-53
2024/03/02 08:56:24;;;;;;;4.07;1.23;;;12.30;99.90;;;;;;4971716;28;20043;-56
2024/03/02 08:58:50;;;;;;;2.83;1.00;;;12.20;99.90;;;;;;4972806;28;20030;-51
2024/03/02 09:01:17;;;;;;;2.20;1.10;;;12.20;99.90;;;;;;4972628;28;20019;-53
2024/03/02 09:03:45;;;;;;;9.00;4.13;;;12.20;99.90;;;;;;4972826;28;20027;-55
2024/03/02 09:06:13;;;;;;;2.67;1.38;;;12.40;99.90;;;;;;4973493;28;20026;-55
2024/03/02 09:08:39;;;;;;;2.45;1.05;;;12.70;99.90;;;;;;4976557;28;20037;-53
2024/03/02 09:11:08;;;;;;;3.38;0.98;;;12.80;99.90;;;;;;4976497;28;20034;-51
2024/03/02 09:13:33;;;;;;;2.50;1.10;;;13.10;99.90;;;;;;4976665;28;20066;-53
2024/03/02 09:15:59;;;;;;;2.80;1.40;;;13.10;99.90;;;;;;4976562;28;20867;-54
2024/03/02 09:18:25;;;;;;;1.77;1.00;;;13.20;99.90;;;;;;4976460;28;20034;-55
2024/03/02 09:20:50;;;;;;;2.67;1.00;;;13.10;99.90;;;;;;4976356;28;20027;-54
2024/03/02 09:23:16;;;;;;;1.83;0.90;;;13.30;99.90;;;;;;4976288;28;20038;-54
2024/03/02 09:25:41;;;;;;;2.80;1.20;;;13.50;99.90;;;;;;4976217;28;20050;-53
2024/03/02 09:28:07;;;;;;;2.17;1.30;;;13.70;99.90;;;;;;4976266;28;20467;-54
2024/03/02 09:30:33;;;;;;;4.88;1.63;;;14.00;99.90;;;;;;4976248;28;20034;-54
2024/03/02 09:32:59;;;;;;;3.17;1.67;;;14.30;99.90;;;;;;4976106;28;20381;-51
2024/03/02 09:35:24;;;;;;;3.72;1.58;;;14.00;99.90;;;;;;4976195;28;20035;-55
2024/03/02 09:37:50;;;;;;;2.15;1.10;;;14.10;99.90;;;;;;4976071;28;20031;-55
2024/03/02 09:40:16;;;;;;;1.90;1.23;;;14.30;99.90;;;;;;4976148;28;20113;-54
2024/03/02 09:42:42;;;;;;;3.97;1.08;;;14.50;99.90;;;;;;4975958;28;20106;-55
2024/03/02 09:45:09;;;;;;;2.80;1.17;;;14.70;99.80;;;;;;4975972;28;20086;-52
2024/03/02 09:47:35;;;;;;;2.75;1.27;;;15.40;99.30;;;;;;4976073;28;20030;-54
2024/03/02 09:50:01;;;;;;;2.20;0.77;;;15.70;98.50;;;;;;4975942;28;20074;-54
2024/03/02 09:52:26;;;;;;;2.10;0.95;;;15.60;97.90;;;;;;4975669;28;20062;-55
2024/03/02 09:54:52;;;;;;;1.73;0.90;;;15.20;98.30;;;;;;4975868;28;20037;-55
2024/03/02 09:57:18;;;;;;;2.50;0.90;;;14.50;99.50;;;;;;4975942;28;20460;-56
2024/03/02 09:59:45;;;;;;;2.45;0.82;;;14.40;99.90;;;;;;4975679;28;20026;-55
2024/03/02 10:02:10;;;;;;;1.63;0.60;;;15.00;99.10;;;;;;4975595;28;20027;-56
2024/03/02 10:04:36;;;;;;;2.53;0.70;;;15.80;97.50;;;;;;4975648;28;20023;-56
2024/03/02 10:07:16;;;;;;;4.13;0.82;;;15.70;97.20;;;;;;4975549;28;20125;-55
2024/03/02 10:09:43;;;;;;;1.42;0.70;;;15.20;98.10;;;;;;4975537;28;20483;-54
2024/03/02 10:12:11;;;;;;;1.13;0.55;;;14.70;98.80;;;;;;4975432;28;20034;-53
2024/03/02 10:14:37;;;;;;;1.10;0.60;;;14.30;98.90;;;;;;4975448;28;20106;-52
2024/03/02 10:17:05;;;;;;;2.00;0.70;;;14.30;99.30;;;;;;4975071;28;20459;-54
2024/03/02 10:19:34;;;;;;;2.15;0.80;;;15.00;98.60;;;;;;4974488;28;20446;-54
2024/03/02 10:22:02;;;;;;;3.75;1.58;;;16.10;97.40;;;;;;4975269;28;20492;-55
2024/03/02 10:24:38;;;;;;;5.05;2.30;;;17.60;94.80;;;;;;4975538;28;20369;-53
2024/03/02 10:27:08;;;;;;;1.85;0.93;;;18.70;93.10;;;;;;4974307;28;20034;-53
2024/03/02 10:29:37;;;;;;;2.25;0.90;;;18.40;92.20;;;;;;4975155;28;20035;-55
2024/03/02 10:32:03;;;;;;;1.25;0.60;;;17.30;93.30;;;;;;4975137;28;20169;-56
2024/03/02 10:34:29;;;;;;;2.72;0.70;;;17.20;93.70;;;;;;4975479;28;20106;-56
2024/03/02 10:36:55;;;;;;;1.83;0.60;;;17.80;93.40;;;;;;4975103;28;20534;-55
2024/03/02 10:39:21;;;;;;;1.38;0.60;;;17.90;92.70;;;;;;4975152;28;20030;-56
2024/03/02 10:41:49;;;;;;;1.10;0.70;;;17.70;92.90;;;;;;4974947;28;20034;-54
2024/03/02 10:44:15;;;;;;;2.08;0.70;;;17.70;93.50;;;;;;4974942;28;20034;-54
2024/03/02 10:46:43;;;;;;;1.27;0.80;;;17.60;93.10;;;;;;4974755;28;20480;-54
2024/03/02 10:49:09;;;;;;;1.30;0.67;;;18.00;92.60;;;;;;4974856;28;20026;-55
2024/03/02 10:51:36;;;;;;;0.90;0.73;;;18.50;92.30;;;;;;4974557;28;20114;-55
2024/03/02 10:54:03;;;;;;;1.92;0.75;;;19.20;91.20;;;;;;4974710;28;20050;-55
2024/03/02 10:56:40;;;;;;;3.33;0.70;;;19.50;91.00;;;;;;4974733;28;20037;-54
2024/03/02 10:59:16;;;;;;;1.02;0.52;;;19.50;89.80;;;;;;4974580;28;20041;-56
2024/03/02 11:01:43;;;;;;;2.92;0.80;;;20.00;90.10;;;;;;4974580;28;20046;-53
2024/03/02 11:04:12;;;;;;;2.53;1.17;;;19.60;89.00;;;;;;4974645;28;20027;-55
2024/03/02 11:06:41;;;;;;;1.92;0.80;;;19.70;89.80;;;;;;4974605;28;20035;-53
2024/03/02 11:09:10;;;;;;;1.83;0.65;;;19.60;89.00;;;;;;4974640;28;20488;-55
2024/03/02 11:11:43;;;;;;;1.05;0.68;;;19.80;88.20;;;;;;4974172;28;20034;-55
2024/03/02 11:14:14;;;;;;;4.10;0.70;;;19.30;88.20;;;;;;4974380;28;20039;-54
2024/03/02 11:16:41;;;;;;;2.03;0.60;;;19.30;88.50;;;;;;4974399;28;20407;-55
2024/03/02 11:19:12;;;;;;;1.90;1.10;;;19.60;89.50;;;;;;4972984;28;20455;-54
2024/03/02 11:21:40;;;;;;;1.02;0.52;;;19.60;87.10;;;;;;4974019;28;20038;-53
2024/03/02 11:24:32;;;;;;;0.93;0.70;;;19.60;87.50;;;;;;4974185;28;20069;-51
2024/03/02 11:26:59;;;;;;;2.90;0.90;;;19.20;87.90;;;;;;4974198;28;20046;-51
2024/03/02 11:29:40;;;;;;;1.63;0.80;;;18.50;89.70;;;;;;4973679;28;20505;-51
2024/03/02 11:32:13;;;;;;;1.85;0.80;;;17.60;90.80;;;;;;4973934;28;20476;-53
2024/03/02 11:34:45;;;;;;;1.70;0.80;;;17.40;92.00;;;;;;4973816;28;20081;-50
2024/03/02 11:37:11;;;;;;;1.73;0.90;;;17.30;91.60;;;;;;4973993;28;20058;-50
2024/03/02 11:39:39;;;;;;;2.42;1.02;;;17.30;92.20;;;;;;4974198;28;20049;-52
2024/03/02 11:42:09;;;;;;;2.88;1.00;;;17.60;91.50;;;;;;4974263;28;20039;-50
2024/03/02 11:44:37;;;;;;;1.80;0.73;;;18.10;90.60;;;;;;4974116;28;20516;-50
2024/03/02 11:47:06;;;;;;;2.70;0.80;;;18.50;90.20;;;;;;4974084;28;20121;-52
2024/03/02 11:49:42;;;;;;;2.50;0.93;;;18.50;89.70;;;;;;4973945;28;20048;-53
2024/03/02 11:52:10;;;;;;;1.38;0.80;;;18.00;90.60;;;;;;4975461;28;20448;-50
2024/03/02 11:54:46;;;;;;;2.47;0.90;;;17.30;91.20;;;;;;4975261;28;20035;-50
2024/03/02 11:57:14;;;;;;;2.15;0.85;;;16.80;91.60;;;;;;4975251;28;20039;-51
2024/03/02 11:59:40;;;;;;;2.15;0.65;;;16.60;92.40;;;;;;4973454;28;20031;-53
2024/03/02 12:02:06;;;;;;;1.45;0.70;;;17.10;91.90;;;;;;4973527;28;20333;-56
2024/03/02 12:04:32;;;;;;;1.90;0.90;;;17.70;91.30;;;;;;4973321;28;20029;-55
2024/03/02 12:07:00;;;;;;;1.80;0.80;;;18.60;90.00;;;;;;4973447;28;20515;-56
2024/03/02 12:09:26;;;;;;;2.42;0.80;;;19.50;87.90;;;;;;4973453;28;20073;-55
2024/03/02 12:12:06;;;;;;;4.25;0.90;;;20.00;84.50;;;;;;4973235;28;20033;-56
2024/03/02 12:14:33;;;;;;;3.90;1.10;;;21.00;82.30;;;;;;4973343;28;20042;-52
2024/03/02 12:16:59;;;;;;;1.50;0.85;;;20.40;82.00;;;;;;4973243;28;20110;-55
2024/03/02 12:19:29;;;;;;;1.52;0.80;;;19.50;83.80;;;;;;4973194;28;20122;-54
2024/03/02 12:21:56;;;;;;;2.35;0.82;;;18.40;86.50;;;;;;4973231;28;20106;-53
2024/03/02 12:24:22;;;;;;;1.95;0.90;;;17.40;87.70;;;;;;4973113;28;20037;-55
2024/03/02 12:26:49;;;;;;;3.42;0.80;;;16.50;90.30;;;;;;4973020;28;20043;-55
2024/03/02 12:29:15;;;;;;;1.67;0.82;;;15.80;91.60;;;;;;4973111;28;20492;-51
2024/03/02 12:31:45;;;;;;;1.90;0.65;;;15.60;92.30;;;;;;4972951;28;20384;-53
2024/03/02 12:34:13;;;;;;;3.65;0.80;;;15.70;92.50;;;;;;4972873;28;20058;-55
2024/03/02 12:36:39;;;;;;;1.73;0.60;;;15.60;92.60;;;;;;4973061;28;20045;-54
2024/03/02 12:39:05;;;;;;;2.15;0.70;;;15.50;92.80;;;;;;4972896;28;20039;-54
2024/03/02 12:41:31;;;;;;;2.83;0.98;;;15.50;93.10;;;;;;4987041;28;20498;-55
2024/03/02 12:43:56;;;;;;;2.40;0.63;;;15.50;93.40;;;;;;4972875;28;20069;-52
2024/03/02 12:46:22;;;;;;;3.38;0.80;;;15.50;93.60;;;;;;4972818;28;20507;-55
2024/03/02 12:48:48;;;;;;;2.25;0.70;;;15.50;93.40;;;;;;4972809;28;20038;-55
2024/03/02 12:51:14;;;;;;;1.30;0.60;;;15.30;93.30;;;;;;4972755;28;20133;-55
2024/03/02 12:53:40;;;;;;;2.03;0.80;;;15.20;93.60;;;;;;4971506;28;20484;-55
2024/03/02 12:56:07;;;;;;;2.30;0.90;;;15.10;93.90;;;;;;4972924;28;20077;-53
2024/03/02 12:58:41;;;;;;;4.30;0.80;;;15.00;94.20;;;;;;4972713;28;20089;-56